Paso Robles, CA

7:02 PM PDT on August 31, 2016 (GMT -0700)
Renate Hill | | Change Station

Elev 889 ft 35.63 °N, 120.67 °W | Updated 21 seconds ago

Clear
Clear
81.0 °F
Feels Like 80 °F
N
4.3
Wind Variable Wind from NW
Gusts 7.4 mph

Today
High -- | Low -- °F
--% Chance of Precip.
Yesterday
High -- | Low -- °F
Precip. -- in
Pressure 29.84 in
Visibility 10.0 miles
Clouds Clear
Heat Index 80 °F
Dew Point 51 °F
Humidity 35%
Rainfall 0.00 in
Snow Depth Not available.
6:34 AM 7:30 PM
Waning Crescent, 0% visible
METAR KPRB 010153Z AUTO 30013KT 10SM CLR 27/10 A2986 RMK AO2 SLP103 T02670100 TSNO
Pressure 29.84 in
Visibility 10.0 miles
Clouds Clear
Heat Index 80 °F
Dew Point 51 °F
Humidity 35%
Rainfall 0.00 in
Snow Depth Not available.
6:34 AM 7:30 PM
Waning Crescent, 0% visible
METAR KPRB 010153Z AUTO 30013KT 10SM CLR 27/10 A2986 RMK AO2 SLP103 T02670100 TSNO

10-Day Weather Forecast

Almanac

Astronomy

Aug. 31, 2016 Rise Set
Actual Time
Civil Twilight
Nautical Twilight
Astronomical Twilight
Moon
Length of Visible Light
Length of Day
Tomorrow will be .
, % of the Moon is Illuminated

Today's Extremes

State Highs State Lows

Community

WunderPhotos

Upload Photos

1,936,268 photos uploaded!

WunderBlog® & News

Nearby

Air Quality

  Air Quality AQ Index Pollutant
Not available.

Snow Depth

Station Depth Elevation

Earthquake Activity

City Distance Mag. Time & Date
Minimum magnitude displayed is 2.5.

Coastal Water Temperatures

Place Temperature

Stations

Nearby Weather Stations

Station Location Temp. Windchill Dew Point Humidity Wind Precip. Elev Updated Type
                   

Watches & Warnings

There are currently no watches in effect.